Relevés horaires Naluns / Schlivera (Suisse)


Relevés horaires à Naluns / Schlivera - Jeudi 05 Oct. 2017
Heure UTC1 Température [°C] Vent [km/h] Hum. [%] Pres.4 [hPa] Visi. [Km] Nébu. [octa] Préc.5 [mm] Cond.
2m. Res. Ros. Dir.2 Vit. Moy. Raf.3
23:00 1.7 -1.5 -0.4 ONO 11.1 -- 27.8 86 700(-0.4/3h) -- -- -- --
22:00 1.8 -1 -1.1 E 9.3 -- 38.9 81 700(-0.9/3h) -- -- -- --
21:00 4.1 -0.5 -3.3 O 24.1 -- 74.1 58 700(-1.5/3h) -- -- -- --
20:00 6.3 1.8 -4.7 O 29.6 -- 74.1 45 700(-1.7/3h) -- -- -- --
19:00 6.3 4 -5.0 O 11.1 -- 64.8 44 700(-1.1/3h) -- -- -- --
18:00 7.1 3.1 -6.6 OSO 25.9 -- 77.8 37 700(-1.1/3h) -- -- -- --
17:00 7.6 3.1 -6.5 OSO 35.2 -- 77.8 36 700(-1.0/3h) -- -- -- --
16:00 9.0 5.4 -4.3 OSO 27.8 -- 66.7 39 700(-1.1/3h) -- -- -- --
15:00 10.1 7.1 -4.6 OSO 24.1 -- 74.1 35 700(-1.1/3h) -- -- -- --
14:00 10.4 6.5 -5.3 OSO 40.7 -- 74.1 33 700(-1.7/3h) -- -- -- --
13:00 10.7 7.1 -5.3 OSO 37.0 -- 68.5 32 700(-1.8/3h) -- -- -- --
12:00 10.8 6.7 -5.1 OSO 48.2 -- 83.3 32 700(-1.5/3h) -- -- -- --
11:00 11.3 7.2 -4.5 OSO 51.9 -- 83.3 33 700(-1.1/3h) -- -- -- --
10:00 11.6 9.2 -2.7 OSO 22.2 -- 55.6 37 700(-0.6/3h) -- -- -- --
09:00 10.5 7 -2.5 SO 33.3 -- 48.2 40 700(-0.5/3h) -- -- -- --
08:00 9.5 6.4 -5.2 SO 24.1 -- 38.9 35 700(-0.6/3h) -- -- -- --
07:00 8.6 5.4 -9.3 OSO 22.2 -- 48.2 27 700(-0.7/3h) -- -- -- --
06:00 7.6 3.3 -10.2 O 31.5 -- 46.3 27 700(-1.2/3h) -- -- -- --
05:00 6.9 2.9 -11.2 O 25.9 -- 38.9 26 700(-1.2/3h) -- -- -- --
04:00 6.7 3.4 -10.4 OSO 18.5 -- 33.3 28 700(-1.5/3h) -- -- -- --
03:00 7.2 3.8 -9.8 OSO 20.4 -- 29.6 29 700(-1.3/3h) -- -- -- --
02:00 6.6 3.3 -14.8 OSO 18.5 -- 24.1 20 700(-1.2/3h) -- -- -- --
01:00 8.1 6.5 -17.0 O 9.3 -- 29.6 15 700(-0.9/3h) -- -- -- --
00:00 6.8 5.4 -15.6 O 7.4 -- 46.3 18 700(-0.4/3h) -- -- -- --

1 Coordinated Universal Time. Actuellement il est 06:00 locale et 04:00 UTC.

2 Le vent souffle depuis la direction indiquée vers la direction oposée.

3 Les rafales max. sont disponible 40 min après l'heure du relevé.

4 Pour les stations d'altitude (plus de 600m) le géopotentiel du niveau le plus proche de la pression obligatoire est indiqué.

5 Les stations disposant d'un diffuseur peuvent indiquer "trace". Cela signifie que des précipitations ont touchés le sol mais que la quantité est inférieure à 0.1 mm.

Copyright

Les données affichées sur cette page sont la propriété exclusive de Météo Suisse.

Récapitulatif de la journée
Température [°C] Vent [km/h] Ensoleillement4 [h] Precipitations totale5 [mm] Pression [Hpa]
Min1 Max.2 Moy.3 Max. Min Max.
6.2 11.6 0 83.3 10 h 24 min 0 700.0 700.0

1 Température minimale relevée entre 18:00 UTC la veille et 18:00 UTC le jour donné.

2 Température maximale relevée entre 06:00 UTC le jour donné et 06:00 UTC le lendemain.

3 Vent moyen de la journée basé sur les relevés horaires.

4 Ensoleillement en heures relevé entre 06:00 UTC la veille et 06:00 UTC le jour donné.

5 Précipitations totales tombées entre 06:00 UTC la jour donné et 06:00 UTC le lendemain.

Graphiques horaires